createdAt,value
2023-02-16T00:00:45.507Z,5.75
2023-02-16T00:01:45.546Z,5.70
2023-02-16T00:02:45.507Z,5.69
2023-02-16T00:03:45.536Z,5.65
2023-02-16T00:04:45.467Z,5.61
2023-02-16T00:05:45.457Z,5.61
2023-02-16T00:06:45.552Z,5.59
2023-02-16T00:07:45.467Z,5.59
2023-02-16T00:08:45.416Z,5.58
2023-02-16T00:09:45.407Z,5.58
2023-02-16T00:10:45.409Z,5.58
2023-02-16T00:11:45.383Z,5.55
2023-02-16T00:12:45.376Z,5.54
2023-02-16T00:13:45.408Z,5.51
2023-02-16T00:14:45.426Z,5.50
2023-02-16T00:15:45.416Z,5.44
2023-02-16T00:16:45.335Z,5.40
2023-02-16T00:17:45.317Z,5.37
2023-02-16T00:18:45.322Z,5.36
2023-02-16T00:19:45.345Z,5.34
2023-02-16T00:20:45.296Z,5.32
2023-02-16T00:21:45.284Z,5.32
2023-02-16T00:22:45.266Z,5.30
2023-02-16T00:23:45.258Z,5.30
2023-02-16T00:24:45.310Z,5.30
2023-02-16T00:25:45.245Z,5.27
2023-02-16T00:26:45.232Z,5.27
2023-02-16T00:27:45.216Z,5.25
2023-02-16T00:28:45.219Z,5.25
2023-02-16T00:29:46.012Z,5.21
2023-02-16T00:30:45.211Z,5.18
2023-02-16T00:31:45.297Z,5.16
2023-02-16T00:32:45.168Z,5.18
2023-02-16T00:33:45.158Z,5.18
2023-02-16T00:34:52.537Z,5.18
2023-02-16T00:35:45.138Z,5.16
2023-02-16T00:36:45.128Z,5.16
2023-02-16T00:37:45.116Z,5.18
2023-02-16T00:38:45.108Z,5.16
2023-02-16T00:39:45.168Z,5.14
2023-02-16T00:40:45.086Z,5.12
2023-02-16T00:41:45.166Z,5.11
2023-02-16T00:42:45.071Z,5.09
2023-02-16T00:43:45.051Z,5.06
2023-02-16T00:44:45.091Z,5.04
2023-02-16T00:45:45.041Z,5.03
2023-02-16T00:46:45.043Z,5.00
2023-02-16T00:47:45.008Z,5.00
2023-02-16T00:48:45.415Z,4.98
2023-02-16T00:49:44.989Z,4.97
2023-02-16T00:50:44.999Z,4.96
2023-02-16T00:51:44.958Z,4.97
2023-02-16T00:52:44.958Z,4.97
2023-02-16T00:53:44.940Z,4.97
2023-02-16T00:54:44.939Z,4.98
2023-02-16T00:55:44.933Z,4.98
2023-02-16T00:56:44.953Z,4.98
2023-02-16T00:57:44.899Z,5.00
2023-02-16T00:58:44.889Z,5.00
2023-02-16T00:59:44.928Z,5.01
2023-02-16T01:00:44.885Z,5.01
2023-02-16T01:01:44.894Z,5.03
2023-02-16T01:02:44.898Z,5.03
2023-02-16T01:03:44.838Z,5.03
2023-02-16T01:04:44.919Z,5.04
2023-02-16T01:05:44.826Z,5.04
2023-02-16T01:06:44.814Z,5.04
2023-02-16T01:07:44.792Z,5.06
2023-02-16T01:08:44.783Z,5.06
2023-02-16T01:09:44.783Z,5.04
2023-02-16T01:10:44.806Z,5.04
2023-02-16T01:11:44.746Z,5.03
2023-02-16T01:12:44.737Z,5.03
2023-02-16T01:13:44.745Z,5.03
2023-02-16T01:14:44.720Z,5.01
2023-02-16T01:15:44.766Z,5.01
2023-02-16T01:16:44.693Z,5.01
2023-02-16T01:17:44.685Z,5.01
2023-02-16T01:18:44.692Z,5.01
2023-02-16T01:19:44.764Z,4.98
2023-02-16T01:20:44.659Z,4.98
2023-02-16T01:21:44.645Z,4.97
2023-02-16T01:22:44.634Z,4.94
2023-02-16T01:23:44.630Z,4.93
2023-02-16T01:24:44.645Z,4.91
2023-02-16T01:25:44.612Z,4.91
2023-02-16T01:26:44.594Z,4.88
2023-02-16T01:27:44.583Z,4.88
2023-02-16T01:28:44.614Z,4.85
2023-02-16T01:29:44.561Z,4.83
2023-02-16T01:30:44.590Z,4.79
2023-02-16T01:31:44.622Z,4.77
2023-02-16T01:32:44.559Z,4.77
2023-02-16T01:33:44.549Z,4.77
2023-02-16T01:34:44.516Z,4.75
2023-02-16T01:35:44.503Z,4.75
2023-02-16T01:36:44.482Z,4.72
2023-02-16T01:37:44.482Z,4.75
2023-02-16T01:38:44.491Z,4.74
2023-02-16T01:39:44.468Z,4.71
2023-02-16T01:40:44.440Z,4.69
2023-02-16T01:41:44.560Z,4.67
2023-02-16T01:42:44.417Z,4.64
2023-02-16T01:43:44.425Z,4.60
2023-02-16T01:44:44.404Z,4.60
2023-02-16T01:45:44.403Z,4.57
2023-02-16T01:46:44.769Z,4.54
2023-02-16T01:47:44.400Z,4.53
2023-02-16T01:48:44.357Z,4.51
2023-02-16T01:49:44.350Z,4.51
2023-02-16T01:50:44.387Z,4.49
2023-02-16T01:51:44.370Z,4.49
2023-02-16T01:52:44.320Z,4.49
2023-02-16T01:53:44.309Z,4.48
2023-02-16T01:54:44.302Z,4.48
2023-02-16T01:55:44.305Z,4.48
2023-02-16T01:56:44.302Z,4.45
2023-02-16T01:57:44.269Z,4.45
2023-02-16T01:58:44.279Z,4.45
2023-02-16T01:59:44.250Z,4.45
2023-02-16T02:00:44.230Z,4.45
2023-02-16T02:01:44.314Z,4.45
2023-02-16T02:02:44.252Z,4.45
2023-02-16T02:03:44.220Z,4.43
2023-02-16T02:04:44.194Z,4.43
2023-02-16T02:05:44.248Z,4.45
2023-02-16T02:06:44.161Z,4.45
2023-02-16T02:07:44.179Z,4.45
2023-02-16T02:08:44.168Z,4.43
2023-02-16T02:09:44.139Z,4.42
2023-02-16T02:10:44.119Z,4.42
2023-02-16T02:11:44.109Z,4.41
2023-02-16T02:12:44.193Z,4.41
2023-02-16T02:13:44.098Z,4.39
2023-02-16T02:14:44.238Z,4.38
2023-02-16T02:15:44.123Z,4.36
2023-02-16T02:16:44.068Z,4.36
2023-02-16T02:17:44.056Z,4.36
2023-02-16T02:18:44.046Z,4.35
2023-02-16T02:19:44.037Z,4.36
2023-02-16T02:20:44.056Z,4.34
2023-02-16T02:21:44.013Z,4.34
2023-02-16T02:22:43.996Z,4.34
2023-02-16T02:23:44.015Z,4.30
2023-02-16T02:24:43.965Z,4.28
2023-02-16T02:25:43.974Z,4.26
2023-02-16T02:26:43.981Z,4.24
2023-02-16T02:27:44.005Z,4.23
2023-02-16T02:28:43.943Z,4.21
2023-02-16T02:29:43.924Z,4.23
2023-02-16T02:30:43.952Z,4.21
2023-02-16T02:31:44.011Z,4.20
2023-02-16T02:32:43.959Z,4.20
2023-02-16T02:33:43.881Z,4.18
2023-02-16T02:34:43.865Z,4.20
2023-02-16T02:35:43.863Z,4.18
2023-02-16T02:36:43.844Z,4.18
2023-02-16T02:37:43.833Z,4.18
2023-02-16T02:38:43.854Z,4.17
2023-02-16T02:39:43.844Z,4.16
2023-02-16T02:40:43.794Z,4.13
2023-02-16T02:41:43.934Z,4.10
2023-02-16T02:42:43.792Z,4.08
2023-02-16T02:43:43.803Z,4.05
2023-02-16T02:44:43.768Z,4.02
2023-02-16T02:45:43.764Z,4.02
2023-02-16T02:46:43.787Z,4.02
2023-02-16T02:47:43.746Z,4.03
2023-02-16T02:48:43.781Z,4.02
2023-02-16T02:49:43.712Z,4.03
2023-02-16T02:50:43.733Z,4.05
2023-02-16T02:51:43.692Z,4.02
2023-02-16T02:52:43.672Z,4.02
2023-02-16T02:53:43.701Z,3.99
2023-02-16T02:54:43.717Z,3.98
2023-02-16T02:55:43.668Z,3.94
2023-02-16T02:56:43.644Z,3.91
2023-02-16T02:57:43.629Z,3.90
2023-02-16T02:58:43.613Z,3.87
2023-02-16T02:59:43.640Z,3.85
2023-02-16T03:00:43.641Z,3.84
2023-02-16T03:01:43.674Z,3.82
2023-02-16T03:02:43.573Z,3.82
2023-02-16T03:03:43.572Z,3.84
2023-02-16T03:04:43.556Z,3.85
2023-02-16T03:05:43.556Z,3.85
2023-02-16T03:06:43.532Z,3.87
2023-02-16T03:07:43.553Z,3.88
2023-02-16T03:08:43.505Z,3.91
2023-02-16T03:09:44.178Z,3.90
2023-02-16T03:10:43.491Z,3.91
2023-02-16T03:11:43.482Z,3.91
2023-02-16T03:12:43.471Z,3.91
2023-02-16T03:13:43.499Z,3.90
2023-02-16T03:14:43.446Z,3.91
2023-02-16T03:15:43.450Z,3.92
2023-02-16T03:16:43.516Z,3.94
2023-02-16T03:17:43.411Z,3.98
2023-02-16T03:18:43.417Z,3.98
2023-02-16T03:19:43.400Z,3.98
2023-02-16T03:20:43.416Z,3.98
2023-02-16T03:21:43.381Z,3.96
2023-02-16T03:22:43.364Z,3.96
2023-02-16T03:23:43.357Z,3.94
2023-02-16T03:24:43.351Z,3.91
2023-02-16T03:25:43.386Z,3.91
2023-02-16T03:26:43.381Z,3.92
2023-02-16T03:27:43.305Z,3.91
2023-02-16T03:28:43.311Z,3.92
2023-02-16T03:29:43.284Z,3.91
2023-02-16T03:30:43.379Z,3.91
2023-02-16T03:31:43.407Z,3.91
2023-02-16T03:32:43.266Z,3.90
2023-02-16T03:33:43.259Z,3.90
2023-02-16T03:34:43.233Z,3.88
2023-02-16T03:35:43.236Z,3.88
2023-02-16T03:36:43.294Z,3.90
2023-02-16T03:37:43.213Z,3.88
2023-02-16T03:38:43.194Z,3.91
2023-02-16T03:39:43.184Z,3.91
2023-02-16T03:40:43.173Z,3.92
2023-02-16T03:41:43.165Z,3.96
2023-02-16T03:42:43.184Z,3.96
2023-02-16T03:43:43.134Z,3.94
2023-02-16T03:44:43.114Z,3.96
2023-02-16T03:45:43.126Z,3.96
2023-02-16T03:46:43.111Z,3.98
2023-02-16T03:47:43.133Z,3.96
2023-02-16T03:48:43.091Z,3.96
2023-02-16T03:49:43.106Z,3.96
2023-02-16T03:50:43.078Z,3.96
2023-02-16T03:51:43.070Z,3.98
2023-02-16T03:52:43.105Z,3.98
2023-02-16T03:53:43.041Z,3.99
2023-02-16T03:54:43.030Z,3.96
2023-02-16T03:55:43.037Z,3.96
2023-02-16T03:56:43.007Z,3.96
2023-02-16T03:57:43.052Z,3.96
2023-02-16T03:58:42.988Z,3.98
2023-02-16T03:59:43.050Z,3.99
2023-02-16T04:00:42.955Z,4.00
2023-02-16T04:01:42.981Z,4.02
2023-02-16T04:02:42.994Z,4.03
2023-02-16T04:03:42.947Z,4.05
2023-02-16T04:04:42.961Z,4.13
2023-02-16T04:05:42.926Z,4.27
2023-02-16T04:06:42.923Z,4.31
2023-02-16T04:07:42.893Z,4.36
2023-02-16T04:08:42.914Z,4.36
2023-02-16T04:09:43.008Z,4.38
2023-02-16T04:10:42.923Z,4.36
2023-02-16T04:11:42.894Z,4.38
2023-02-16T04:12:42.833Z,4.39
2023-02-16T04:13:42.833Z,4.39
2023-02-16T04:14:43.887Z,4.41
2023-02-16T04:15:42.817Z,4.42
2023-02-16T04:16:42.858Z,4.42
2023-02-16T04:17:42.845Z,4.42
2023-02-16T04:18:42.764Z,4.42
2023-02-16T04:19:42.798Z,4.42
2023-02-16T04:20:42.795Z,4.41
2023-02-16T04:21:42.748Z,4.41
2023-02-16T04:22:42.740Z,4.39
2023-02-16T04:23:42.722Z,4.39
2023-02-16T04:24:42.741Z,4.38
2023-02-16T04:25:42.756Z,4.38
2023-02-16T04:26:42.723Z,4.35
2023-02-16T04:27:42.682Z,4.31
2023-02-16T04:28:42.702Z,4.30
2023-02-16T04:29:42.685Z,4.28
2023-02-16T04:30:42.797Z,4.26
2023-02-16T04:31:42.724Z,4.23
2023-02-16T04:32:42.620Z,4.21
2023-02-16T04:33:42.645Z,4.18
2023-02-16T04:34:42.711Z,4.16
2023-02-16T04:35:42.605Z,4.13
2023-02-16T04:36:42.629Z,4.10
2023-02-16T04:37:42.593Z,4.09
2023-02-16T04:38:42.578Z,4.06
2023-02-16T04:39:42.608Z,4.03
2023-02-16T04:40:42.539Z,4.00
2023-02-16T04:41:42.576Z,3.98
2023-02-16T04:42:42.556Z,3.96
2023-02-16T04:43:42.516Z,3.98
2023-02-16T04:44:42.583Z,3.98
2023-02-16T04:45:42.510Z,3.98
2023-02-16T04:46:42.475Z,3.98
2023-02-16T04:47:42.471Z,3.98
2023-02-16T04:48:42.447Z,3.98
2023-02-16T04:49:42.482Z,3.96
2023-02-16T04:50:42.470Z,3.94
2023-02-16T04:51:42.422Z,3.94
2023-02-16T04:52:42.445Z,3.91
2023-02-16T04:53:42.403Z,3.88
2023-02-16T04:54:42.487Z,3.87
2023-02-16T04:55:42.424Z,3.87
2023-02-16T04:56:42.366Z,3.88
2023-02-16T04:57:42.361Z,3.87
2023-02-16T04:58:42.374Z,3.88
2023-02-16T04:59:42.340Z,3.87
2023-02-16T05:00:42.351Z,3.88
2023-02-16T05:01:42.360Z,3.88
2023-02-16T05:02:42.322Z,3.88
2023-02-16T05:03:42.325Z,3.88
2023-02-16T05:04:42.436Z,3.90
2023-02-16T05:05:42.275Z,3.88
2023-02-16T05:06:42.257Z,3.88
2023-02-16T05:07:42.273Z,3.88
2023-02-16T05:08:42.233Z,3.87
2023-02-16T05:09:42.262Z,3.84
2023-02-16T05:10:42.272Z,3.82
2023-02-16T05:11:42.214Z,3.81
2023-02-16T05:12:42.192Z,3.80
2023-02-16T05:13:42.733Z,3.78
2023-02-16T05:14:42.176Z,3.76
2023-02-16T05:15:42.220Z,3.74
2023-02-16T05:16:42.155Z,3.76
2023-02-16T05:17:42.151Z,3.76
2023-02-16T05:18:42.201Z,3.78
2023-02-16T05:19:42.165Z,3.78
2023-02-16T05:20:42.123Z,3.78
2023-02-16T05:21:42.122Z,3.78
2023-02-16T05:22:42.099Z,3.78
2023-02-16T05:23:42.082Z,3.78
2023-02-16T05:24:42.109Z,3.76
2023-02-16T05:25:42.068Z,3.78
2023-02-16T05:26:42.047Z,3.76
2023-02-16T05:27:42.039Z,3.76
2023-02-16T05:28:42.029Z,3.78
2023-02-16T05:29:42.018Z,3.80
2023-02-16T05:30:42.101Z,3.80
2023-02-16T05:31:42.185Z,3.82
2023-02-16T05:32:41.990Z,3.82
2023-02-16T05:33:42.012Z,3.85
2023-02-16T05:34:41.968Z,3.88
2023-02-16T05:35:41.990Z,3.88
2023-02-16T05:36:41.949Z,3.88
2023-02-16T05:37:42.829Z,3.88
2023-02-16T05:38:44.108Z,3.87
2023-02-16T05:39:42.007Z,3.85
2023-02-16T05:40:41.973Z,3.85
2023-02-16T05:41:49.411Z,3.85
2023-02-16T05:42:41.896Z,3.87
2023-02-16T05:43:41.886Z,3.87
2023-02-16T05:44:41.867Z,3.88
2023-02-16T05:45:41.853Z,3.88
2023-02-16T05:46:41.873Z,3.88
2023-02-16T05:47:41.824Z,3.88
2023-02-16T05:48:41.835Z,3.88
2023-02-16T05:49:41.827Z,3.91
2023-02-16T05:50:43.522Z,3.94
2023-02-16T05:51:41.826Z,3.94
2023-02-16T05:52:41.793Z,3.99
2023-02-16T05:53:41.763Z,3.98
2023-02-16T05:54:41.755Z,3.99
2023-02-16T05:55:41.742Z,3.99
2023-02-16T05:56:41.732Z,4.00
2023-02-16T05:57:41.760Z,4.02
2023-02-16T05:58:41.712Z,4.03
2023-02-16T05:59:41.757Z,4.05
2023-02-16T06:00:41.698Z,4.06
2023-02-16T06:01:41.734Z,4.05
2023-02-16T06:02:41.737Z,4.06
2023-02-16T06:03:41.725Z,4.06
2023-02-16T06:04:41.733Z,4.06
2023-02-16T06:05:41.644Z,4.05
2023-02-16T06:06:41.640Z,4.08
2023-02-16T06:07:41.617Z,4.06
2023-02-16T06:08:41.624Z,4.06
2023-02-16T06:09:41.616Z,4.03
2023-02-16T06:10:41.594Z,4.00
2023-02-16T06:11:41.634Z,3.99
2023-02-16T06:12:43.888Z,3.98
2023-02-16T06:13:41.553Z,3.99
2023-02-16T06:14:41.554Z,3.99
2023-02-16T06:15:41.547Z,4.00
2023-02-16T06:16:41.646Z,4.00
2023-02-16T06:17:41.583Z,4.00
2023-02-16T06:18:43.936Z,4.00
2023-02-16T06:19:41.501Z,4.00
2023-02-16T06:20:41.488Z,4.02
2023-02-16T06:21:41.561Z,4.02
2023-02-16T06:22:41.492Z,4.05
2023-02-16T06:23:41.458Z,4.08
2023-02-16T06:24:41.483Z,4.09
2023-02-16T06:25:41.464Z,4.12
2023-02-16T06:26:41.429Z,4.12
2023-02-16T06:27:41.404Z,4.16
2023-02-16T06:28:41.411Z,4.17
2023-02-16T06:29:41.422Z,4.17
2023-02-16T06:30:41.382Z,4.20
2023-02-16T06:31:41.467Z,4.18
2023-02-16T06:32:41.357Z,4.20
2023-02-16T06:33:41.342Z,4.21
2023-02-16T06:34:41.443Z,4.23
2023-02-16T06:35:41.332Z,4.23
2023-02-16T06:36:42.607Z,4.23
2023-02-16T06:37:41.318Z,4.24
2023-02-16T06:38:41.298Z,4.26
2023-02-16T06:39:41.331Z,4.27
2023-02-16T06:40:41.309Z,4.28
2023-02-16T06:41:41.310Z,4.30
2023-02-16T06:42:41.334Z,4.34
2023-02-16T06:43:41.237Z,4.35
2023-02-16T06:44:41.229Z,4.35
2023-02-16T06:45:41.244Z,4.35
2023-02-16T06:46:41.283Z,4.39
2023-02-16T06:47:42.915Z,4.41
2023-02-16T06:48:41.188Z,4.43
2023-02-16T06:49:41.185Z,4.48
2023-02-16T06:50:41.168Z,4.48
2023-02-16T06:51:41.369Z,4.54
2023-02-16T06:52:41.156Z,4.57
2023-02-16T06:53:41.164Z,4.60
2023-02-16T06:54:41.139Z,4.64
2023-02-16T06:55:41.125Z,4.69
2023-02-16T06:56:41.177Z,4.72
2023-02-16T06:57:41.116Z,4.75
2023-02-16T06:58:41.084Z,4.77
2023-02-16T06:59:41.088Z,4.78
2023-02-16T07:00:41.139Z,4.82
2023-02-16T07:01:42.536Z,4.83
2023-02-16T07:02:41.044Z,4.88
2023-02-16T07:03:41.086Z,4.91
2023-02-16T07:04:41.024Z,4.94
2023-02-16T07:05:41.012Z,4.96
2023-02-16T07:06:46.203Z,4.97
2023-02-16T07:07:40.985Z,5.00
2023-02-16T07:08:40.986Z,5.01
2023-02-16T07:09:40.966Z,5.03
2023-02-16T07:10:49.812Z,5.04
2023-02-16T07:11:41.965Z,5.09
2023-02-16T07:12:40.954Z,5.15
2023-02-16T07:13:40.917Z,5.18
2023-02-16T07:14:44.145Z,5.22
2023-02-16T07:15:40.933Z,5.24
2023-02-16T07:16:40.957Z,5.27
2023-02-16T07:17:42.575Z,5.32
2023-02-16T07:18:40.871Z,5.34
2023-02-16T07:19:40.845Z,5.36
2023-02-16T07:20:40.861Z,5.39
2023-02-16T07:21:40.883Z,5.41
2023-02-16T07:22:40.832Z,5.41
2023-02-16T07:23:40.817Z,5.44
2023-02-16T07:24:40.803Z,5.48
2023-02-16T07:25:40.791Z,5.51
2023-02-16T07:26:40.796Z,5.51
2023-02-16T07:27:40.812Z,5.55
2023-02-16T07:28:40.786Z,5.55
2023-02-16T07:29:40.760Z,5.58
2023-02-16T07:30:40.744Z,5.61
2023-02-16T07:31:40.835Z,5.62
2023-02-16T07:32:40.823Z,5.67
2023-02-16T07:33:41.057Z,5.66
2023-02-16T07:34:40.701Z,5.69
2023-02-16T07:35:40.712Z,5.72
2023-02-16T07:36:40.720Z,5.73
2023-02-16T07:37:40.658Z,5.76
2023-02-16T07:38:40.650Z,5.77
2023-02-16T07:39:40.639Z,5.80
2023-02-16T07:40:40.770Z,5.80
2023-02-16T07:41:40.645Z,5.84
2023-02-16T07:42:40.611Z,5.87
2023-02-16T07:43:40.594Z,5.88
2023-02-16T07:44:40.590Z,5.90
2023-02-16T07:45:40.629Z,5.91
2023-02-16T07:46:40.589Z,5.91
2023-02-16T07:47:40.557Z,5.94
2023-02-16T07:48:40.537Z,5.95
2023-02-16T07:49:40.530Z,5.98
2023-02-16T07:50:40.517Z,6.00
2023-02-16T07:51:40.528Z,6.03
2023-02-16T07:52:40.546Z,6.03
2023-02-16T07:53:40.485Z,6.06
2023-02-16T07:54:40.486Z,6.08
2023-02-16T07:55:40.488Z,6.11
2023-02-16T07:56:40.456Z,6.09
2023-02-16T07:57:40.504Z,6.11
2023-02-16T07:58:40.434Z,6.13
2023-02-16T07:59:40.464Z,6.16
2023-02-16T08:00:40.450Z,6.18
2023-02-16T08:01:45.596Z,6.21
2023-02-16T08:02:40.542Z,6.25
2023-02-16T08:03:40.482Z,6.28
2023-02-16T08:04:40.372Z,6.30
2023-02-16T08:05:40.353Z,6.34
2023-02-16T08:06:40.353Z,6.37
2023-02-16T08:07:40.333Z,6.43
2023-02-16T08:08:40.336Z,6.46
2023-02-16T08:09:43.883Z,6.50
2023-02-16T08:10:40.342Z,6.53
2023-02-16T08:11:40.307Z,6.55
2023-02-16T08:12:40.291Z,6.57
2023-02-16T08:13:40.325Z,6.61
2023-02-16T08:14:40.273Z,6.63
2023-02-16T08:15:40.252Z,6.64
2023-02-16T08:16:40.296Z,6.67
2023-02-16T08:17:40.240Z,6.67
2023-02-16T08:18:40.231Z,6.68
2023-02-16T08:19:40.253Z,6.71
2023-02-16T08:21:01.553Z,6.73
2023-02-16T08:21:41.200Z,6.74
2023-02-16T08:22:40.243Z,6.78
2023-02-16T08:23:40.194Z,6.78
2023-02-16T08:24:40.167Z,6.81
2023-02-16T08:25:40.293Z,6.82
2023-02-16T08:26:40.144Z,6.83
2023-02-16T08:27:40.128Z,6.85
2023-02-16T08:28:40.179Z,6.88
2023-02-16T08:29:40.226Z,6.91
2023-02-16T08:30:40.100Z,6.92
2023-02-16T08:31:40.221Z,6.96
2023-02-16T08:32:40.105Z,6.97
2023-02-16T08:33:40.068Z,7.01
2023-02-16T08:34:42.947Z,7.04
2023-02-16T08:35:40.038Z,7.08
2023-02-16T08:36:40.096Z,7.11
2023-02-16T08:37:40.058Z,7.15
2023-02-16T08:38:40.024Z,7.16
2023-02-16T08:39:40.010Z,7.19
2023-02-16T08:40:40.034Z,7.21
2023-02-16T08:41:39.978Z,7.24
2023-02-16T08:42:39.980Z,7.25
2023-02-16T08:43:39.977Z,7.29
2023-02-16T08:44:40.001Z,7.34
2023-02-16T08:45:39.973Z,7.36
2023-02-16T08:46:40.027Z,7.39
2023-02-16T08:47:39.916Z,7.42
2023-02-16T08:48:39.915Z,7.43
2023-02-16T08:49:39.903Z,7.46
2023-02-16T08:50:39.893Z,7.47
2023-02-16T08:51:39.873Z,7.49
2023-02-16T08:52:39.953Z,7.49
2023-02-16T08:53:39.893Z,7.50
2023-02-16T08:54:39.893Z,7.54
2023-02-16T08:55:39.852Z,7.54
2023-02-16T08:56:39.842Z,7.55
2023-02-16T08:57:39.814Z,7.57
2023-02-16T08:58:40.019Z,7.60
2023-02-16T08:59:39.782Z,7.61
2023-02-16T09:00:39.770Z,7.64
2023-02-16T09:01:39.849Z,7.68
2023-02-16T09:02:42.257Z,7.68
2023-02-16T09:03:39.740Z,7.69
2023-02-16T09:04:39.732Z,7.73
2023-02-16T09:05:39.710Z,7.74
2023-02-16T09:06:39.887Z,7.77
2023-02-16T09:07:39.698Z,7.78
2023-02-16T09:08:39.714Z,7.81
2023-02-16T09:09:41.727Z,7.84
2023-02-16T09:10:39.772Z,7.84
2023-02-16T09:11:39.731Z,7.86
2023-02-16T09:12:39.713Z,7.88
2023-02-16T09:13:39.677Z,7.92
2023-02-16T09:14:39.623Z,7.95
2023-02-16T09:15:39.627Z,7.98
2023-02-16T09:16:39.824Z,8.01
2023-02-16T09:17:39.585Z,8.02
2023-02-16T09:18:39.657Z,8.05
2023-02-16T09:19:39.568Z,8.10
2023-02-16T09:20:39.578Z,8.14
2023-02-16T09:21:39.549Z,8.16
2023-02-16T09:22:39.576Z,8.19
2023-02-16T09:23:39.869Z,8.24
2023-02-16T09:24:39.519Z,8.28
2023-02-16T09:25:39.563Z,8.34
2023-02-16T09:26:39.499Z,8.37
2023-02-16T09:27:39.501Z,8.41
2023-02-16T09:28:39.500Z,8.47
2023-02-16T09:29:39.458Z,8.50
2023-02-16T09:30:39.646Z,8.56
2023-02-16T09:31:39.629Z,8.59
2023-02-16T09:32:39.429Z,8.63
2023-02-16T09:33:39.415Z,8.67
2023-02-16T09:34:39.407Z,8.71
2023-02-16T09:35:39.410Z,8.74
2023-02-16T09:36:39.391Z,8.78
2023-02-16T09:37:39.407Z,8.80
2023-02-16T09:38:39.368Z,8.83
2023-02-16T09:39:39.356Z,8.88
2023-02-16T09:40:39.348Z,8.90
2023-02-16T09:41:39.395Z,8.93
2023-02-16T09:42:39.316Z,8.96
2023-02-16T09:43:39.315Z,8.99
2023-02-16T09:44:39.366Z,9.04
2023-02-16T09:45:39.295Z,9.09
2023-02-16T09:46:39.408Z,9.12
2023-02-16T09:47:39.274Z,9.15
2023-02-16T09:48:39.274Z,9.19
2023-02-16T09:49:39.311Z,9.23
2023-02-16T09:50:53.397Z,9.27
2023-02-16T09:51:40.233Z,9.29
2023-02-16T09:52:39.226Z,9.33
2023-02-16T09:53:39.237Z,9.37
2023-02-16T09:54:39.223Z,9.40
2023-02-16T09:55:39.190Z,9.44
2023-02-16T09:56:39.196Z,9.45
2023-02-16T09:57:39.166Z,9.50
2023-02-16T09:58:39.186Z,9.52
2023-02-16T09:59:39.505Z,9.57
2023-02-16T10:00:39.276Z,9.59
2023-02-16T10:01:39.200Z,9.62
2023-02-16T10:02:39.152Z,9.63
2023-02-16T10:03:39.106Z,9.63
2023-02-16T10:04:39.083Z,9.63
2023-02-16T10:05:39.177Z,9.65
2023-02-16T10:06:39.068Z,9.65
2023-02-16T10:07:39.057Z,9.67
2023-02-16T10:08:39.088Z,9.70
2023-02-16T10:09:39.037Z,9.67
2023-02-16T10:10:40.228Z,9.67
2023-02-16T10:11:39.013Z,9.70
2023-02-16T10:12:39.018Z,9.70
2023-02-16T10:13:38.998Z,9.70
2023-02-16T10:14:39.026Z,9.72
2023-02-16T10:15:39.070Z,9.72
2023-02-16T10:16:38.969Z,9.72
2023-02-16T10:17:38.958Z,9.72
2023-02-16T10:18:38.935Z,9.72
2023-02-16T10:19:38.936Z,9.72
2023-02-16T10:20:38.936Z,9.72
2023-02-16T10:21:38.947Z,9.72
2023-02-16T10:22:38.894Z,9.70
2023-02-16T10:23:38.895Z,9.70
2023-02-16T10:24:38.955Z,9.70
2023-02-16T10:25:38.877Z,9.67
2023-02-16T10:26:38.850Z,9.67
2023-02-16T10:27:38.928Z,9.66
2023-02-16T10:28:38.832Z,9.66
2023-02-16T10:29:38.825Z,9.65
2023-02-16T10:30:38.809Z,9.63
2023-02-16T10:31:39.029Z,9.63
2023-02-16T10:32:43.766Z,9.62
2023-02-16T10:33:39.837Z,9.59
2023-02-16T10:34:38.770Z,9.57
2023-02-16T10:35:38.769Z,9.57
2023-02-16T10:36:38.754Z,9.55
2023-02-16T10:37:38.745Z,9.52
2023-02-16T10:38:38.729Z,9.52
2023-02-16T10:39:38.746Z,9.51
2023-02-16T10:40:38.706Z,9.51
2023-02-16T10:41:38.728Z,9.51
2023-02-16T10:42:38.716Z,9.48
2023-02-16T10:43:38.678Z,9.50
2023-02-16T10:44:38.668Z,9.48
2023-02-16T10:45:38.658Z,9.50
2023-02-16T10:46:38.711Z,9.50
2023-02-16T10:47:38.641Z,9.50
2023-02-16T10:48:38.625Z,9.48
2023-02-16T10:49:38.619Z,9.51
2023-02-16T10:50:38.606Z,9.50
2023-02-16T10:51:38.662Z,9.50
2023-02-16T10:52:38.609Z,9.51
2023-02-16T10:53:38.617Z,9.51
2023-02-16T10:54:38.558Z,9.52
2023-02-16T10:55:38.557Z,9.52
2023-02-16T10:56:38.539Z,9.54
2023-02-16T10:57:38.562Z,9.54
2023-02-16T10:58:38.540Z,9.55
2023-02-16T10:59:38.620Z,9.55
2023-02-16T11:00:38.499Z,9.57
2023-02-16T11:01:38.577Z,9.57
2023-02-16T11:02:38.474Z,9.59
2023-02-16T11:03:38.466Z,9.59
2023-02-16T11:04:38.487Z,9.57
2023-02-16T11:05:38.470Z,9.59
2023-02-16T11:06:38.430Z,9.59
2023-02-16T11:07:38.427Z,9.60
2023-02-16T11:08:38.408Z,9.63
2023-02-16T11:09:38.452Z,9.63
2023-02-16T11:10:38.473Z,9.66
2023-02-16T11:11:38.388Z,9.67
2023-02-16T11:12:38.409Z,9.70
2023-02-16T11:13:38.365Z,9.72
2023-02-16T11:14:38.343Z,9.75
2023-02-16T11:15:38.340Z,9.77
2023-02-16T11:16:38.364Z,9.78
2023-02-16T11:17:38.322Z,9.77
2023-02-16T11:18:38.313Z,9.78
2023-02-16T11:19:38.306Z,9.80
2023-02-16T11:20:38.303Z,9.81
2023-02-16T11:21:38.345Z,9.83
2023-02-16T11:22:38.265Z,9.84
2023-02-16T11:23:38.254Z,9.87
2023-02-16T11:24:38.302Z,9.88
2023-02-16T11:25:38.283Z,9.91
2023-02-16T11:26:38.224Z,9.93
2023-02-16T11:27:38.222Z,9.93
2023-02-16T11:28:38.220Z,9.93
2023-02-16T11:29:38.194Z,9.94
2023-02-16T11:30:38.193Z,9.94
2023-02-16T11:31:38.300Z,9.94
2023-02-16T11:32:38.154Z,9.94
2023-02-16T11:33:38.151Z,9.96
2023-02-16T11:34:38.144Z,9.98
2023-02-16T11:35:38.137Z,9.99
2023-02-16T11:36:38.138Z,10.02
2023-02-16T11:37:38.199Z,10.03
2023-02-16T11:38:38.127Z,10.05
2023-02-16T11:39:38.092Z,10.06
2023-02-16T11:40:38.089Z,10.08
2023-02-16T11:41:38.069Z,10.08
2023-02-16T11:42:40.228Z,10.09
2023-02-16T11:43:38.047Z,10.10
2023-02-16T11:44:38.026Z,10.10
2023-02-16T11:45:38.010Z,10.12
2023-02-16T11:46:38.068Z,10.09
2023-02-16T11:47:37.998Z,10.12
2023-02-16T11:48:37.987Z,10.12
2023-02-16T11:49:37.974Z,10.09
2023-02-16T11:50:38.032Z,10.05
2023-02-16T11:51:37.942Z,10.02
2023-02-16T11:52:37.988Z,9.99
2023-02-16T11:53:37.931Z,9.93
2023-02-16T11:54:37.921Z,9.87
2023-02-16T11:55:37.909Z,9.84
2023-02-16T11:56:37.930Z,9.83
2023-02-16T11:57:37.892Z,9.83
2023-02-16T11:58:37.877Z,9.80
2023-02-16T11:59:37.913Z,9.78
2023-02-16T12:00:37.888Z,9.73
2023-02-16T12:01:38.085Z,9.72
2023-02-16T12:02:37.830Z,9.67
2023-02-16T12:03:37.857Z,9.66
2023-02-16T12:04:37.811Z,9.65
2023-02-16T12:05:37.862Z,9.65
2023-02-16T12:06:37.852Z,9.63
2023-02-16T12:07:37.781Z,9.62
2023-02-16T12:08:37.751Z,9.59
2023-02-16T12:09:37.752Z,9.54
2023-02-16T12:10:37.749Z,9.54
2023-02-16T12:11:37.765Z,9.55
2023-02-16T12:12:37.782Z,9.54
2023-02-16T12:13:37.713Z,9.51
2023-02-16T12:14:37.741Z,9.51
2023-02-16T12:15:37.689Z,9.52
2023-02-16T12:16:37.735Z,9.54
2023-02-16T12:17:37.740Z,9.52
2023-02-16T12:18:37.653Z,9.52
2023-02-16T12:19:37.650Z,9.52
2023-02-16T12:20:37.692Z,9.54
2023-02-16T12:21:37.704Z,9.51
2023-02-16T12:22:37.620Z,9.50
2023-02-16T12:23:37.607Z,9.47
2023-02-16T12:24:37.604Z,9.47
2023-02-16T12:25:37.585Z,9.45
2023-02-16T12:26:37.612Z,9.45
2023-02-16T12:27:37.579Z,9.45
2023-02-16T12:28:37.549Z,9.44
2023-02-16T12:29:37.540Z,9.42
2023-02-16T12:30:37.585Z,9.42
2023-02-16T12:31:37.542Z,9.42
2023-02-16T12:32:37.598Z,9.41
2023-02-16T12:33:37.546Z,9.41
2023-02-16T12:34:37.478Z,9.42
2023-02-16T12:35:37.470Z,9.41
2023-02-16T12:36:37.477Z,9.37
2023-02-16T12:37:37.454Z,9.40
2023-02-16T12:38:37.484Z,9.40
2023-02-16T12:39:37.433Z,9.37
2023-02-16T12:40:37.418Z,9.37
2023-02-16T12:41:37.425Z,9.37
2023-02-16T12:42:37.396Z,9.37
2023-02-16T12:43:37.386Z,9.37
2023-02-16T12:44:37.423Z,9.37
2023-02-16T12:45:37.406Z,9.40
2023-02-16T12:46:37.345Z,9.41
2023-02-16T12:47:37.367Z,9.42
2023-02-16T12:48:37.378Z,9.44
2023-02-16T12:49:37.323Z,9.45
2023-02-16T12:50:37.355Z,9.47
2023-02-16T12:51:37.305Z,9.50
2023-02-16T12:52:37.303Z,9.51
2023-02-16T12:53:37.320Z,9.52
2023-02-16T12:54:37.255Z,9.52
2023-02-16T12:55:37.302Z,9.54
2023-02-16T12:56:37.293Z,9.55
2023-02-16T12:57:37.292Z,9.55
2023-02-16T12:58:37.222Z,9.55
2023-02-16T12:59:37.270Z,9.57
2023-02-16T13:00:37.194Z,9.59
2023-02-16T13:01:37.193Z,9.60
2023-02-16T13:02:37.186Z,9.62
2023-02-16T13:03:37.250Z,9.63
2023-02-16T13:04:37.238Z,9.62
2023-02-16T13:05:37.215Z,9.63
2023-02-16T13:06:37.145Z,9.65
2023-02-16T13:07:37.148Z,9.65
2023-02-16T13:08:37.158Z,9.66
2023-02-16T13:09:37.132Z,9.67
2023-02-16T13:10:37.111Z,9.72
2023-02-16T13:11:37.204Z,9.69
2023-02-16T13:12:37.105Z,9.70
2023-02-16T13:13:38.828Z,9.69
2023-02-16T13:14:37.063Z,9.69
2023-02-16T13:15:37.082Z,9.70
2023-02-16T13:16:37.118Z,9.70
2023-02-16T13:17:37.030Z,9.70